sensor_id;sensor_type;location;lat;lon;timestamp;temperature;humidity
5059;DHT22;2548;52.050;11.036;2022-12-20T00:01:10;7.40;99.90
5059;DHT22;2548;52.050;11.036;2022-12-20T00:03:38;7.50;99.90
5059;DHT22;2548;52.050;11.036;2022-12-20T00:06:07;7.40;99.90
5059;DHT22;2548;52.050;11.036;2022-12-20T00:08:36;7.40;99.90
5059;DHT22;2548;52.050;11.036;2022-12-20T00:11:05;7.50;99.90
5059;DHT22;2548;52.050;11.036;2022-12-20T00:13:33;7.50;99.90
5059;DHT22;2548;52.050;11.036;2022-12-20T00:16:06;7.50;99.90
5059;DHT22;2548;52.050;11.036;2022-12-20T00:18:37;7.50;99.90
5059;DHT22;2548;52.050;11.036;2022-12-20T00:21:08;7.30;99.90
5059;DHT22;2548;52.050;11.036;2022-12-20T00:23:36;7.20;99.90
5059;DHT22;2548;52.050;11.036;2022-12-20T00:26:06;7.10;99.90
5059;DHT22;2548;52.050;11.036;2022-12-20T00:28:35;7.00;99.90
5059;DHT22;2548;52.050;11.036;2022-12-20T00:31:03;6.80;99.90
5059;DHT22;2548;52.050;11.036;2022-12-20T00:33:34;6.60;99.90
5059;DHT22;2548;52.050;11.036;2022-12-20T00:36:03;6.50;99.90
5059;DHT22;2548;52.050;11.036;2022-12-20T00:38:32;6.30;99.90
5059;DHT22;2548;52.050;11.036;2022-12-20T00:41:00;6.10;99.90
5059;DHT22;2548;52.050;11.036;2022-12-20T00:43:29;6.00;99.90
5059;DHT22;2548;52.050;11.036;2022-12-20T00:45:57;5.90;99.90
5059;DHT22;2548;52.050;11.036;2022-12-20T00:48:26;5.80;99.90
5059;DHT22;2548;52.050;11.036;2022-12-20T00:50:57;5.70;99.90
5059;DHT22;2548;52.050;11.036;2022-12-20T00:53:24;5.70;99.90
5059;DHT22;2548;52.050;11.036;2022-12-20T00:55:53;5.50;99.90
5059;DHT22;2548;52.050;11.036;2022-12-20T00:58:21;5.40;99.90
5059;DHT22;2548;52.050;11.036;2022-12-20T01:00:49;5.40;99.90
5059;DHT22;2548;52.050;11.036;2022-12-20T01:03:16;5.30;99.90
5059;DHT22;2548;52.050;11.036;2022-12-20T01:05:49;5.20;99.90
5059;DHT22;2548;52.050;11.036;2022-12-20T01:08:19;5.10;99.90
5059;DHT22;2548;52.050;11.036;2022-12-20T01:10:46;5.00;99.90
5059;DHT22;2548;52.050;11.036;2022-12-20T01:13:15;5.00;99.90
5059;DHT22;2548;52.050;11.036;2022-12-20T01:15:43;5.00;99.90
5059;DHT22;2548;52.050;11.036;2022-12-20T01:18:10;4.90;99.90
5059;DHT22;2548;52.050;11.036;2022-12-20T01:20:38;4.90;99.90
5059;DHT22;2548;52.050;11.036;2022-12-20T01:23:05;4.80;99.90
5059;DHT22;2548;52.050;11.036;2022-12-20T01:25:32;4.90;99.90
5059;DHT22;2548;52.050;11.036;2022-12-20T01:28:00;4.90;99.90
5059;DHT22;2548;52.050;11.036;2022-12-20T01:30:29;5.00;99.90
5059;DHT22;2548;52.050;11.036;2022-12-20T01:32:56;5.00;99.90
5059;DHT22;2548;52.050;11.036;2022-12-20T01:35:24;5.10;99.90
5059;DHT22;2548;52.050;11.036;2022-12-20T01:37:51;5.10;99.90
5059;DHT22;2548;52.050;11.036;2022-12-20T01:40:18;5.20;99.90
5059;DHT22;2548;52.050;11.036;2022-12-20T01:42:46;5.10;99.90
5059;DHT22;2548;52.050;11.036;2022-12-20T01:45:22;5.00;99.90
5059;DHT22;2548;52.050;11.036;2022-12-20T01:47:53;4.90;99.90
5059;DHT22;2548;52.050;11.036;2022-12-20T01:50:23;4.90;99.90
5059;DHT22;2548;52.050;11.036;2022-12-20T01:52:51;4.90;99.90
5059;DHT22;2548;52.050;11.036;2022-12-20T01:55:22;4.80;99.90
5059;DHT22;2548;52.050;11.036;2022-12-20T01:57:54;4.70;99.90
5059;DHT22;2548;52.050;11.036;2022-12-20T02:00:23;4.60;99.90
5059;DHT22;2548;52.050;11.036;2022-12-20T02:02:52;4.40;99.90
5059;DHT22;2548;52.050;11.036;2022-12-20T02:05:21;4.30;99.90
5059;DHT22;2548;52.050;11.036;2022-12-20T02:07:52;4.30;99.90
5059;DHT22;2548;52.050;11.036;2022-12-20T02:10:21;4.20;99.90
5059;DHT22;2548;52.050;11.036;2022-12-20T02:12:54;4.30;99.90
5059;DHT22;2548;52.050;11.036;2022-12-20T02:15:31;4.30;99.90
5059;DHT22;2548;52.050;11.036;2022-12-20T02:18:15;4.30;99.90
5059;DHT22;2548;52.050;11.036;2022-12-20T02:21:04;4.40;99.90
5059;DHT22;2548;52.050;11.036;2022-12-20T02:29:32;4.20;99.90
5059;DHT22;2548;52.050;11.036;2022-12-20T02:32:08;4.10;99.90
5059;DHT22;2548;52.050;11.036;2022-12-20T02:34:40;4.10;99.90
5059;DHT22;2548;52.050;11.036;2022-12-20T02:37:08;4.00;99.90
5059;DHT22;2548;52.050;11.036;2022-12-20T02:39:39;3.90;99.90
5059;DHT22;2548;52.050;11.036;2022-12-20T02:42:07;3.80;99.90
5059;DHT22;2548;52.050;11.036;2022-12-20T02:44:38;3.80;99.90
5059;DHT22;2548;52.050;11.036;2022-12-20T02:47:31;3.70;99.90
5059;DHT22;2548;52.050;11.036;2022-12-20T02:50:01;3.60;99.90
5059;DHT22;2548;52.050;11.036;2022-12-20T02:52:29;3.60;99.90
5059;DHT22;2548;52.050;11.036;2022-12-20T02:54:59;3.60;99.90
5059;DHT22;2548;52.050;11.036;2022-12-20T02:57:36;3.60;99.90
5059;DHT22;2548;52.050;11.036;2022-12-20T03:00:07;3.60;99.90
5059;DHT22;2548;52.050;11.036;2022-12-20T03:02:38;3.70;99.90
5059;DHT22;2548;52.050;11.036;2022-12-20T03:05:23;3.70;99.90
5059;DHT22;2548;52.050;11.036;2022-12-20T03:07:54;3.80;99.90
5059;DHT22;2548;52.050;11.036;2022-12-20T03:10:24;3.80;99.90
5059;DHT22;2548;52.050;11.036;2022-12-20T03:12:51;3.80;99.90
5059;DHT22;2548;52.050;11.036;2022-12-20T03:15:19;3.80;99.90
5059;DHT22;2548;52.050;11.036;2022-12-20T03:17:51;3.90;99.90
5059;DHT22;2548;52.050;11.036;2022-12-20T03:20:18;4.00;99.90
5059;DHT22;2548;52.050;11.036;2022-12-20T03:22:46;4.10;99.90
5059;DHT22;2548;52.050;11.036;2022-12-20T03:25:13;4.30;99.90
5059;DHT22;2548;52.050;11.036;2022-12-20T03:27:41;4.30;99.90
5059;DHT22;2548;52.050;11.036;2022-12-20T03:30:09;4.30;99.90
5059;DHT22;2548;52.050;11.036;2022-12-20T03:32:37;4.40;99.90
5059;DHT22;2548;52.050;11.036;2022-12-20T03:35:07;4.40;99.90
5059;DHT22;2548;52.050;11.036;2022-12-20T03:37:38;4.50;99.90
5059;DHT22;2548;52.050;11.036;2022-12-20T03:40:07;4.50;99.90
5059;DHT22;2548;52.050;11.036;2022-12-20T03:42:35;4.40;99.90
5059;DHT22;2548;52.050;11.036;2022-12-20T03:45:04;4.40;99.90
5059;DHT22;2548;52.050;11.036;2022-12-20T03:47:33;4.40;99.90
5059;DHT22;2548;52.050;11.036;2022-12-20T03:50:01;4.30;99.90
5059;DHT22;2548;52.050;11.036;2022-12-20T03:52:34;4.30;99.90
5059;DHT22;2548;52.050;11.036;2022-12-20T03:55:02;4.30;99.90
5059;DHT22;2548;52.050;11.036;2022-12-20T03:57:37;4.30;99.90
5059;DHT22;2548;52.050;11.036;2022-12-20T04:00:14;4.20;99.90
5059;DHT22;2548;52.050;11.036;2022-12-20T04:02:46;4.20;99.90
5059;DHT22;2548;52.050;11.036;2022-12-20T04:05:14;4.10;99.90
5059;DHT22;2548;52.050;11.036;2022-12-20T04:07:44;4.00;99.90
5059;DHT22;2548;52.050;11.036;2022-12-20T04:10:12;4.00;99.90
5059;DHT22;2548;52.050;11.036;2022-12-20T04:12:40;4.00;99.90
5059;DHT22;2548;52.050;11.036;2022-12-20T04:15:10;4.10;99.90
5059;DHT22;2548;52.050;11.036;2022-12-20T04:17:39;4.20;99.90
5059;DHT22;2548;52.050;11.036;2022-12-20T04:20:15;4.30;99.90
5059;DHT22;2548;52.050;11.036;2022-12-20T04:22:54;4.40;99.90
5059;DHT22;2548;52.050;11.036;2022-12-20T04:25:22;4.50;99.90
5059;DHT22;2548;52.050;11.036;2022-12-20T04:27:50;4.50;99.90
5059;DHT22;2548;52.050;11.036;2022-12-20T04:30:17;4.70;99.90
5059;DHT22;2548;52.050;11.036;2022-12-20T04:32:45;4.70;99.90
5059;DHT22;2548;52.050;11.036;2022-12-20T04:35:12;4.70;99.90
5059;DHT22;2548;52.050;11.036;2022-12-20T04:37:42;4.80;99.90
5059;DHT22;2548;52.050;11.036;2022-12-20T04:40:12;4.80;99.90
5059;DHT22;2548;52.050;11.036;2022-12-20T04:42:45;4.90;99.90
5059;DHT22;2548;52.050;11.036;2022-12-20T04:45:14;4.90;99.90
5059;DHT22;2548;52.050;11.036;2022-12-20T04:47:42;4.90;99.90
5059;DHT22;2548;52.050;11.036;2022-12-20T04:50:11;4.90;99.90
5059;DHT22;2548;52.050;11.036;2022-12-20T04:52:40;5.00;99.90
5059;DHT22;2548;52.050;11.036;2022-12-20T04:55:27;5.00;99.90
5059;DHT22;2548;52.050;11.036;2022-12-20T04:57:54;5.00;99.90
5059;DHT22;2548;52.050;11.036;2022-12-20T05:00:22;5.10;99.90
5059;DHT22;2548;52.050;11.036;2022-12-20T05:02:58;5.10;99.90
5059;DHT22;2548;52.050;11.036;2022-12-20T05:05:26;5.20;99.90
5059;DHT22;2548;52.050;11.036;2022-12-20T05:07:55;5.10;99.90
5059;DHT22;2548;52.050;11.036;2022-12-20T05:10:23;5.00;99.90
5059;DHT22;2548;52.050;11.036;2022-12-20T05:12:54;4.80;99.90
5059;DHT22;2548;52.050;11.036;2022-12-20T05:15:37;4.60;99.90
5059;DHT22;2548;52.050;11.036;2022-12-20T05:18:05;4.60;99.90
5059;DHT22;2548;52.050;11.036;2022-12-20T05:20:48;4.50;99.90
5059;DHT22;2548;52.050;11.036;2022-12-20T05:23:37;4.40;99.90
5059;DHT22;2548;52.050;11.036;2022-12-20T05:26:25;4.40;99.90
5059;DHT22;2548;52.050;11.036;2022-12-20T05:28:55;4.30;99.90
5059;DHT22;2548;52.050;11.036;2022-12-20T05:31:25;4.40;99.90
5059;DHT22;2548;52.050;11.036;2022-12-20T05:33:52;4.50;99.90
5059;DHT22;2548;52.050;11.036;2022-12-20T05:36:21;4.50;99.90
5059;DHT22;2548;52.050;11.036;2022-12-20T05:38:49;4.60;99.90
5059;DHT22;2548;52.050;11.036;2022-12-20T05:41:18;4.60;99.90
5059;DHT22;2548;52.050;11.036;2022-12-20T05:43:49;4.60;99.90
5059;DHT22;2548;52.050;11.036;2022-12-20T05:46:18;4.60;99.90
5059;DHT22;2548;52.050;11.036;2022-12-20T05:48:56;4.50;99.90
5059;DHT22;2548;52.050;11.036;2022-12-20T05:51:24;4.30;99.90
5059;DHT22;2548;52.050;11.036;2022-12-20T05:54:01;4.20;99.90
5059;DHT22;2548;52.050;11.036;2022-12-20T05:56:46;4.10;99.90
5059;DHT22;2548;52.050;11.036;2022-12-20T05:59:16;4.00;99.90
5059;DHT22;2548;52.050;11.036;2022-12-20T06:01:47;4.00;99.90
5059;DHT22;2548;52.050;11.036;2022-12-20T06:04:14;3.90;99.90
5059;DHT22;2548;52.050;11.036;2022-12-20T06:06:43;3.90;99.90
5059;DHT22;2548;52.050;11.036;2022-12-20T06:09:10;3.90;99.90
5059;DHT22;2548;52.050;11.036;2022-12-20T06:11:42;3.90;99.90
5059;DHT22;2548;52.050;11.036;2022-12-20T06:14:13;3.80;99.90
5059;DHT22;2548;52.050;11.036;2022-12-20T06:16:45;3.90;99.90
5059;DHT22;2548;52.050;11.036;2022-12-20T06:21:44;3.90;99.90
5059;DHT22;2548;52.050;11.036;2022-12-20T06:24:14;3.90;99.90
5059;DHT22;2548;52.050;11.036;2022-12-20T06:26:44;4.00;99.90
5059;DHT22;2548;52.050;11.036;2022-12-20T06:29:12;4.00;99.90
5059;DHT22;2548;52.050;11.036;2022-12-20T06:31:50;4.10;99.90
5059;DHT22;2548;52.050;11.036;2022-12-20T06:34:18;4.20;99.90
5059;DHT22;2548;52.050;11.036;2022-12-20T06:36:47;4.20;99.90
5059;DHT22;2548;52.050;11.036;2022-12-20T06:39:22;4.30;99.90
5059;DHT22;2548;52.050;11.036;2022-12-20T06:41:56;4.40;99.90
5059;DHT22;2548;52.050;11.036;2022-12-20T06:44:24;4.40;99.90
5059;DHT22;2548;52.050;11.036;2022-12-20T06:46:52;4.40;99.90
5059;DHT22;2548;52.050;11.036;2022-12-20T06:49:20;4.50;99.90
5059;DHT22;2548;52.050;11.036;2022-12-20T06:51:49;4.50;99.90
5059;DHT22;2548;52.050;11.036;2022-12-20T06:54:20;4.50;99.90
5059;DHT22;2548;52.050;11.036;2022-12-20T06:56:47;4.60;99.90
5059;DHT22;2548;52.050;11.036;2022-12-20T06:59:15;4.70;99.90
5059;DHT22;2548;52.050;11.036;2022-12-20T07:01:43;4.80;99.90
5059;DHT22;2548;52.050;11.036;2022-12-20T07:04:10;5.00;99.90
5059;DHT22;2548;52.050;11.036;2022-12-20T07:06:38;5.10;99.90
5059;DHT22;2548;52.050;11.036;2022-12-20T07:09:06;5.20;99.90
5059;DHT22;2548;52.050;11.036;2022-12-20T07:11:36;5.30;99.90
5059;DHT22;2548;52.050;11.036;2022-12-20T07:14:03;5.30;99.90
5059;DHT22;2548;52.050;11.036;2022-12-20T07:16:30;5.40;99.90
5059;DHT22;2548;52.050;11.036;2022-12-20T07:18:58;5.40;99.90
5059;DHT22;2548;52.050;11.036;2022-12-20T07:21:25;5.50;99.90
5059;DHT22;2548;52.050;11.036;2022-12-20T07:23:54;5.50;99.90
5059;DHT22;2548;52.050;11.036;2022-12-20T07:26:23;5.60;99.90
5059;DHT22;2548;52.050;11.036;2022-12-20T07:28:50;5.60;99.90
5059;DHT22;2548;52.050;11.036;2022-12-20T07:31:18;5.60;99.90
5059;DHT22;2548;52.050;11.036;2022-12-20T07:33:45;5.60;99.90
5059;DHT22;2548;52.050;11.036;2022-12-20T07:36:13;5.60;99.90
5059;DHT22;2548;52.050;11.036;2022-12-20T07:38:41;5.70;99.90
5059;DHT22;2548;52.050;11.036;2022-12-20T07:41:10;5.90;99.90
5059;DHT22;2548;52.050;11.036;2022-12-20T07:43:39;5.90;99.90
5059;DHT22;2548;52.050;11.036;2022-12-20T07:46:07;6.00;99.90
5059;DHT22;2548;52.050;11.036;2022-12-20T07:48:36;6.00;99.90
5059;DHT22;2548;52.050;11.036;2022-12-20T07:51:06;6.10;99.90
5059;DHT22;2548;52.050;11.036;2022-12-20T07:53:38;6.10;99.90
5059;DHT22;2548;52.050;11.036;2022-12-20T07:56:08;6.20;99.90
5059;DHT22;2548;52.050;11.036;2022-12-20T07:58:40;6.20;99.90
5059;DHT22;2548;52.050;11.036;2022-12-20T08:01:09;6.30;99.90
5059;DHT22;2548;52.050;11.036;2022-12-20T08:03:40;6.30;99.90
5059;DHT22;2548;52.050;11.036;2022-12-20T08:06:10;6.40;99.90
5059;DHT22;2548;52.050;11.036;2022-12-20T08:08:41;6.50;99.90
5059;DHT22;2548;52.050;11.036;2022-12-20T08:11:10;6.60;99.90
5059;DHT22;2548;52.050;11.036;2022-12-20T08:13:40;6.60;99.90
5059;DHT22;2548;52.050;11.036;2022-12-20T08:16:07;6.60;99.90
5059;DHT22;2548;52.050;11.036;2022-12-20T08:18:35;6.70;99.90
5059;DHT22;2548;52.050;11.036;2022-12-20T08:21:03;6.60;99.90
5059;DHT22;2548;52.050;11.036;2022-12-20T08:23:30;6.60;99.90
5059;DHT22;2548;52.050;11.036;2022-12-20T08:25:59;6.70;99.90
5059;DHT22;2548;52.050;11.036;2022-12-20T08:28:27;6.60;99.90
5059;DHT22;2548;52.050;11.036;2022-12-20T08:31:00;6.60;99.90
5059;DHT22;2548;52.050;11.036;2022-12-20T08:33:28;6.60;99.90
5059;DHT22;2548;52.050;11.036;2022-12-20T08:35:56;6.60;99.90
5059;DHT22;2548;52.050;11.036;2022-12-20T08:38:26;6.60;99.90
5059;DHT22;2548;52.050;11.036;2022-12-20T08:40:53;6.60;99.90
5059;DHT22;2548;52.050;11.036;2022-12-20T08:43:21;6.60;99.90
5059;DHT22;2548;52.050;11.036;2022-12-20T08:45:53;6.60;99.90
5059;DHT22;2548;52.050;11.036;2022-12-20T08:48:22;6.70;99.90
5059;DHT22;2548;52.050;11.036;2022-12-20T08:50:53;6.70;99.90
5059;DHT22;2548;52.050;11.036;2022-12-20T08:53:21;6.80;99.90
5059;DHT22;2548;52.050;11.036;2022-12-20T08:55:49;6.90;99.90
5059;DHT22;2548;52.050;11.036;2022-12-20T08:58:17;6.90;99.90
5059;DHT22;2548;52.050;11.036;2022-12-20T09:00:44;6.90;99.90
5059;DHT22;2548;52.050;11.036;2022-12-20T09:03:12;6.90;99.90
5059;DHT22;2548;52.050;11.036;2022-12-20T09:05:45;7.00;99.90
5059;DHT22;2548;52.050;11.036;2022-12-20T09:08:13;7.00;99.90
5059;DHT22;2548;52.050;11.036;2022-12-20T09:10:42;7.00;99.90
5059;DHT22;2548;52.050;11.036;2022-12-20T09:13:10;7.00;99.90
5059;DHT22;2548;52.050;11.036;2022-12-20T09:15:37;7.10;99.90
5059;DHT22;2548;52.050;11.036;2022-12-20T09:18:05;7.10;99.90
5059;DHT22;2548;52.050;11.036;2022-12-20T09:20:32;7.10;99.90
5059;DHT22;2548;52.050;11.036;2022-12-20T09:23:01;7.20;99.90
5059;DHT22;2548;52.050;11.036;2022-12-20T09:25:29;7.20;99.90
5059;DHT22;2548;52.050;11.036;2022-12-20T09:27:56;7.20;99.90
5059;DHT22;2548;52.050;11.036;2022-12-20T09:30:23;7.30;99.90
5059;DHT22;2548;52.050;11.036;2022-12-20T09:32:51;7.30;99.90
5059;DHT22;2548;52.050;11.036;2022-12-20T09:35:18;7.40;99.90
5059;DHT22;2548;52.050;11.036;2022-12-20T09:37:46;7.40;99.90
5059;DHT22;2548;52.050;11.036;2022-12-20T09:40:18;7.40;99.90
5059;DHT22;2548;52.050;11.036;2022-12-20T09:42:48;7.50;99.90
5059;DHT22;2548;52.050;11.036;2022-12-20T09:45:21;7.50;99.90
5059;DHT22;2548;52.050;11.036;2022-12-20T09:47:50;7.60;99.90
5059;DHT22;2548;52.050;11.036;2022-12-20T09:50:20;7.60;99.90
5059;DHT22;2548;52.050;11.036;2022-12-20T09:53:01;7.70;99.90
5059;DHT22;2548;52.050;11.036;2022-12-20T09:55:40;7.80;99.90
5059;DHT22;2548;52.050;11.036;2022-12-20T09:58:21;7.80;99.90
5059;DHT22;2548;52.050;11.036;2022-12-20T10:00:50;7.90;99.90
5059;DHT22;2548;52.050;11.036;2022-12-20T10:03:21;7.90;99.90
5059;DHT22;2548;52.050;11.036;2022-12-20T10:05:51;7.90;99.90
5059;DHT22;2548;52.050;11.036;2022-12-20T10:08:43;7.90;99.90
5059;DHT22;2548;52.050;11.036;2022-12-20T10:11:25;7.90;99.90
5059;DHT22;2548;52.050;11.036;2022-12-20T10:14:01;7.90;99.90
5059;DHT22;2548;52.050;11.036;2022-12-20T10:16:39;7.90;99.90
5059;DHT22;2548;52.050;11.036;2022-12-20T10:19:29;7.90;99.90
5059;DHT22;2548;52.050;11.036;2022-12-20T10:22:07;7.90;99.90
5059;DHT22;2548;52.050;11.036;2022-12-20T10:24:38;7.90;99.90
5059;DHT22;2548;52.050;11.036;2022-12-20T10:27:13;7.90;99.90
5059;DHT22;2548;52.050;11.036;2022-12-20T10:29:41;8.00;99.90
5059;DHT22;2548;52.050;11.036;2022-12-20T10:32:12;7.90;99.90
5059;DHT22;2548;52.050;11.036;2022-12-20T10:34:49;7.90;99.90
5059;DHT22;2548;52.050;11.036;2022-12-20T10:37:18;7.90;99.90
5059;DHT22;2548;52.050;11.036;2022-12-20T10:39:49;7.90;99.90
5059;DHT22;2548;52.050;11.036;2022-12-20T10:42:35;7.90;99.90
5059;DHT22;2548;52.050;11.036;2022-12-20T10:45:20;7.90;99.90
5059;DHT22;2548;52.050;11.036;2022-12-20T10:47:58;7.90;99.90
5059;DHT22;2548;52.050;11.036;2022-12-20T10:50:25;8.00;99.90
5059;DHT22;2548;52.050;11.036;2022-12-20T10:53:18;8.10;99.90
5059;DHT22;2548;52.050;11.036;2022-12-20T10:55:46;8.20;99.90
5059;DHT22;2548;52.050;11.036;2022-12-20T10:58:18;8.30;99.90
5059;DHT22;2548;52.050;11.036;2022-12-20T11:00:48;8.30;99.90
5059;DHT22;2548;52.050;11.036;2022-12-20T11:03:18;8.40;99.90
5059;DHT22;2548;52.050;11.036;2022-12-20T11:05:54;8.40;99.90
5059;DHT22;2548;52.050;11.036;2022-12-20T11:08:22;8.50;99.90
5059;DHT22;2548;52.050;11.036;2022-12-20T11:11:09;8.50;99.90
5059;DHT22;2548;52.050;11.036;2022-12-20T11:13:39;8.60;99.90
5059;DHT22;2548;52.050;11.036;2022-12-20T11:16:22;8.60;99.90
5059;DHT22;2548;52.050;11.036;2022-12-20T11:18:55;8.60;99.90
5059;DHT22;2548;52.050;11.036;2022-12-20T11:21:34;8.60;99.90
5059;DHT22;2548;52.050;11.036;2022-12-20T11:24:09;8.60;99.90
5059;DHT22;2548;52.050;11.036;2022-12-20T11:26:49;8.70;99.90
5059;DHT22;2548;52.050;11.036;2022-12-20T11:29:45;8.70;99.90
5059;DHT22;2548;52.050;11.036;2022-12-20T11:32:24;8.70;99.90
5059;DHT22;2548;52.050;11.036;2022-12-20T11:35:02;8.70;99.90
5059;DHT22;2548;52.050;11.036;2022-12-20T11:37:35;8.70;99.90
5059;DHT22;2548;52.050;11.036;2022-12-20T11:40:15;8.70;99.90
5059;DHT22;2548;52.050;11.036;2022-12-20T11:42:53;8.70;99.90
5059;DHT22;2548;52.050;11.036;2022-12-20T11:45:29;8.70;99.90
5059;DHT22;2548;52.050;11.036;2022-12-20T11:48:10;8.70;99.90
5059;DHT22;2548;52.050;11.036;2022-12-20T11:50:48;8.80;99.90
5059;DHT22;2548;52.050;11.036;2022-12-20T11:53:24;8.80;99.90
5059;DHT22;2548;52.050;11.036;2022-12-20T11:55:58;8.80;99.90
5059;DHT22;2548;52.050;11.036;2022-12-20T11:58:31;8.80;99.90
5059;DHT22;2548;52.050;11.036;2022-12-20T12:01:04;8.80;99.90
5059;DHT22;2548;52.050;11.036;2022-12-20T12:03:34;8.90;99.90
5059;DHT22;2548;52.050;11.036;2022-12-20T12:06:05;8.90;99.90
5059;DHT22;2548;52.050;11.036;2022-12-20T12:08:40;8.90;99.90
5059;DHT22;2548;52.050;11.036;2022-12-20T12:11:14;9.00;99.90
5059;DHT22;2548;52.050;11.036;2022-12-20T12:13:43;8.90;99.90
5059;DHT22;2548;52.050;11.036;2022-12-20T12:16:16;8.90;99.90
5059;DHT22;2548;52.050;11.036;2022-12-20T12:18:44;8.90;99.90
5059;DHT22;2548;52.050;11.036;2022-12-20T12:21:18;8.90;99.90
5059;DHT22;2548;52.050;11.036;2022-12-20T12:23:58;8.90;99.90
5059;DHT22;2548;52.050;11.036;2022-12-20T12:26:28;8.90;99.90
5059;DHT22;2548;52.050;11.036;2022-12-20T12:28:58;8.90;99.90
5059;DHT22;2548;52.050;11.036;2022-12-20T12:31:33;8.80;99.90
5059;DHT22;2548;52.050;11.036;2022-12-20T12:34:09;8.80;99.90
5059;DHT22;2548;52.050;11.036;2022-12-20T12:36:53;8.80;99.90
5059;DHT22;2548;52.050;11.036;2022-12-20T12:39:50;8.80;99.90
5059;DHT22;2548;52.050;11.036;2022-12-20T12:42:42;8.90;99.90
5059;DHT22;2548;52.050;11.036;2022-12-20T12:45:16;8.90;99.90
5059;DHT22;2548;52.050;11.036;2022-12-20T12:47:50;9.00;99.90
5059;DHT22;2548;52.050;11.036;2022-12-20T12:50:23;9.00;99.90
5059;DHT22;2548;52.050;11.036;2022-12-20T12:52:53;8.90;99.90
5059;DHT22;2548;52.050;11.036;2022-12-20T12:55:40;8.90;99.90
5059;DHT22;2548;52.050;11.036;2022-12-20T12:58:31;9.00;99.90
5059;DHT22;2548;52.050;11.036;2022-12-20T13:01:00;9.00;99.90
5059;DHT22;2548;52.050;11.036;2022-12-20T13:04:07;9.00;99.90
5059;DHT22;2548;52.050;11.036;2022-12-20T13:07:24;9.10;99.90
5059;DHT22;2548;52.050;11.036;2022-12-20T13:09:52;9.20;99.90
5059;DHT22;2548;52.050;11.036;2022-12-20T13:12:56;9.20;99.90
5059;DHT22;2548;52.050;11.036;2022-12-20T13:15:47;9.20;99.90
5059;DHT22;2548;52.050;11.036;2022-12-20T13:18:22;9.20;99.90
5059;DHT22;2548;52.050;11.036;2022-12-20T13:21:27;9.20;99.90
5059;DHT22;2548;52.050;11.036;2022-12-20T13:27:21;9.10;99.90
5059;DHT22;2548;52.050;11.036;2022-12-20T13:33:17;9.00;99.90
5059;DHT22;2548;52.050;11.036;2022-12-20T13:35:59;8.90;99.90
5059;DHT22;2548;52.050;11.036;2022-12-20T13:38:51;8.80;99.90
5059;DHT22;2548;52.050;11.036;2022-12-20T13:41:30;8.70;99.90
5059;DHT22;2548;52.050;11.036;2022-12-20T13:44:15;8.70;99.90
5059;DHT22;2548;52.050;11.036;2022-12-20T13:46:49;8.60;99.90
5059;DHT22;2548;52.050;11.036;2022-12-20T13:49:22;8.60;99.90
5059;DHT22;2548;52.050;11.036;2022-12-20T13:52:23;8.60;99.90
5059;DHT22;2548;52.050;11.036;2022-12-20T13:54:53;8.70;99.90
5059;DHT22;2548;52.050;11.036;2022-12-20T13:57:27;8.70;99.90
5059;DHT22;2548;52.050;11.036;2022-12-20T13:59:59;8.80;99.90
5059;DHT22;2548;52.050;11.036;2022-12-20T14:02:31;8.90;99.90
5059;DHT22;2548;52.050;11.036;2022-12-20T14:05:02;9.00;99.90
5059;DHT22;2548;52.050;11.036;2022-12-20T14:07:31;9.10;99.90
5059;DHT22;2548;52.050;11.036;2022-12-20T14:10:01;9.10;99.90
5059;DHT22;2548;52.050;11.036;2022-12-20T14:12:30;9.10;99.90
5059;DHT22;2548;52.050;11.036;2022-12-20T14:14:59;9.10;99.90
5059;DHT22;2548;52.050;11.036;2022-12-20T14:17:28;9.10;99.90
5059;DHT22;2548;52.050;11.036;2022-12-20T14:20:12;9.10;99.90
5059;DHT22;2548;52.050;11.036;2022-12-20T14:22:47;9.00;99.90
5059;DHT22;2548;52.050;11.036;2022-12-20T14:25:32;8.90;99.90
5059;DHT22;2548;52.050;11.036;2022-12-20T14:28:01;8.80;99.90
5059;DHT22;2548;52.050;11.036;2022-12-20T14:30:33;8.70;99.90
5059;DHT22;2548;52.050;11.036;2022-12-20T14:33:02;8.60;99.90
5059;DHT22;2548;52.050;11.036;2022-12-20T14:35:29;8.50;99.90
5059;DHT22;2548;52.050;11.036;2022-12-20T14:37:58;8.40;99.90
5059;DHT22;2548;52.050;11.036;2022-12-20T14:40:27;8.30;99.90
5059;DHT22;2548;52.050;11.036;2022-12-20T14:42:55;8.10;99.90
5059;DHT22;2548;52.050;11.036;2022-12-20T14:45:24;8.10;99.90
5059;DHT22;2548;52.050;11.036;2022-12-20T14:47:59;8.00;99.90
5059;DHT22;2548;52.050;11.036;2022-12-20T14:50:32;8.00;99.90
5059;DHT22;2548;52.050;11.036;2022-12-20T14:53:00;7.90;99.90
5059;DHT22;2548;52.050;11.036;2022-12-20T14:55:32;7.90;99.90
5059;DHT22;2548;52.050;11.036;2022-12-20T14:58:05;7.90;99.90
5059;DHT22;2548;52.050;11.036;2022-12-20T15:00:33;8.00;99.90
5059;DHT22;2548;52.050;11.036;2022-12-20T15:03:13;8.00;99.90
5059;DHT22;2548;52.050;11.036;2022-12-20T15:05:48;8.10;99.90
5059;DHT22;2548;52.050;11.036;2022-12-20T15:08:18;8.10;99.90
5059;DHT22;2548;52.050;11.036;2022-12-20T15:10:50;8.10;99.90
5059;DHT22;2548;52.050;11.036;2022-12-20T15:13:20;8.30;99.90
5059;DHT22;2548;52.050;11.036;2022-12-20T15:15:48;8.30;99.90
5059;DHT22;2548;52.050;11.036;2022-12-20T15:18:19;8.40;99.90
5059;DHT22;2548;52.050;11.036;2022-12-20T15:20:48;8.50;99.90
5059;DHT22;2548;52.050;11.036;2022-12-20T15:23:19;8.50;99.90
5059;DHT22;2548;52.050;11.036;2022-12-20T15:25:48;8.50;99.90
5059;DHT22;2548;52.050;11.036;2022-12-20T15:28:17;8.50;99.90
5059;DHT22;2548;52.050;11.036;2022-12-20T15:30:46;8.50;99.90
5059;DHT22;2548;52.050;11.036;2022-12-20T15:33:20;8.40;99.90
5059;DHT22;2548;52.050;11.036;2022-12-20T15:35:49;8.40;99.90
5059;DHT22;2548;52.050;11.036;2022-12-20T15:38:18;8.40;99.90
5059;DHT22;2548;52.050;11.036;2022-12-20T15:40:47;8.40;99.90
5059;DHT22;2548;52.050;11.036;2022-12-20T15:43:16;8.30;99.90
5059;DHT22;2548;52.050;11.036;2022-12-20T15:45:47;8.30;99.90
5059;DHT22;2548;52.050;11.036;2022-12-20T15:48:18;8.30;99.90
5059;DHT22;2548;52.050;11.036;2022-12-20T15:50:52;8.20;99.90
5059;DHT22;2548;52.050;11.036;2022-12-20T15:53:23;8.20;99.90
5059;DHT22;2548;52.050;11.036;2022-12-20T15:55:54;8.20;99.90
5059;DHT22;2548;52.050;11.036;2022-12-20T15:58:22;8.20;99.90
5059;DHT22;2548;52.050;11.036;2022-12-20T16:00:50;8.10;99.90
5059;DHT22;2548;52.050;11.036;2022-12-20T16:03:22;8.10;99.90
5059;DHT22;2548;52.050;11.036;2022-12-20T16:05:50;8.10;99.90
5059;DHT22;2548;52.050;11.036;2022-12-20T16:08:17;8.10;99.90
5059;DHT22;2548;52.050;11.036;2022-12-20T16:10:45;8.00;99.90
5059;DHT22;2548;52.050;11.036;2022-12-20T16:13:20;8.00;99.90
5059;DHT22;2548;52.050;11.036;2022-12-20T16:15:48;8.00;99.90
5059;DHT22;2548;52.050;11.036;2022-12-20T16:18:15;8.00;99.90
5059;DHT22;2548;52.050;11.036;2022-12-20T16:20:44;8.00;99.90
5059;DHT22;2548;52.050;11.036;2022-12-20T16:23:16;8.00;99.90
5059;DHT22;2548;52.050;11.036;2022-12-20T16:25:45;8.10;99.90
5059;DHT22;2548;52.050;11.036;2022-12-20T16:28:12;8.10;99.90
5059;DHT22;2548;52.050;11.036;2022-12-20T16:30:40;8.10;99.90
5059;DHT22;2548;52.050;11.036;2022-12-20T16:33:17;8.10;99.90
5059;DHT22;2548;52.050;11.036;2022-12-20T16:35:47;8.20;99.90
5059;DHT22;2548;52.050;11.036;2022-12-20T16:38:14;8.20;99.90
5059;DHT22;2548;52.050;11.036;2022-12-20T16:40:43;8.10;99.90
5059;DHT22;2548;52.050;11.036;2022-12-20T16:43:13;8.10;99.90
5059;DHT22;2548;52.050;11.036;2022-12-20T16:45:43;8.20;99.90
5059;DHT22;2548;52.050;11.036;2022-12-20T16:48:11;8.30;99.90